createdAt,value
2018-09-16T00:00:42.156Z,14.13
2018-09-16T00:03:17.684Z,15.00
2018-09-16T00:05:53.079Z,11.45
2018-09-16T00:08:28.282Z,18.90
2018-09-16T00:11:03.664Z,11.18
2018-09-16T00:13:39.020Z,23.07
2018-09-16T00:16:14.496Z,11.83
2018-09-16T00:18:50.068Z,9.35
2018-09-16T00:21:25.680Z,12.75
2018-09-16T00:24:02.190Z,13.68
2018-09-16T00:26:37.718Z,11.95
2018-09-16T00:29:13.143Z,11.90
2018-09-16T00:31:52.608Z,13.22
2018-09-16T00:34:27.985Z,14.00
2018-09-16T00:37:03.418Z,12.15
2018-09-16T00:39:38.727Z,12.60
2018-09-16T00:42:14.225Z,11.40
2018-09-16T00:44:49.587Z,21.77
2018-09-16T00:47:25.005Z,14.55
2018-09-16T00:50:00.419Z,13.78
2018-09-16T00:52:35.923Z,12.65
2018-09-16T00:55:11.255Z,7.25
2018-09-16T00:57:46.661Z,12.00
2018-09-16T01:00:22.137Z,10.55
2018-09-16T01:02:57.456Z,12.50
2018-09-16T01:05:36.773Z,8.85
2018-09-16T01:08:12.338Z,12.58
2018-09-16T01:10:47.549Z,10.05
2018-09-16T01:13:23.106Z,9.50
2018-09-16T01:15:58.529Z,14.98
2018-09-16T01:18:34.121Z,8.70
2018-09-16T01:21:09.413Z,10.25
2018-09-16T01:23:44.844Z,9.43
2018-09-16T01:26:20.281Z,12.80
2018-09-16T01:28:55.906Z,13.65
2018-09-16T01:31:31.384Z,15.15
2018-09-16T01:34:07.196Z,14.23
2018-09-16T01:36:42.466Z,13.90
2018-09-16T01:39:17.867Z,13.38
2018-09-16T01:41:53.320Z,10.72
2018-09-16T01:44:28.777Z,10.88
2018-09-16T01:47:04.161Z,13.55
2018-09-16T01:49:39.709Z,17.40
2018-09-16T01:52:15.147Z,14.45
2018-09-16T01:54:50.517Z,12.45
2018-09-16T01:57:25.948Z,13.65
2018-09-16T02:00:01.394Z,12.50
2018-09-16T02:02:36.881Z,12.20
2018-09-16T02:05:12.285Z,11.18
2018-09-16T02:07:48.044Z,9.80
2018-09-16T02:10:24.058Z,13.43
2018-09-16T02:12:59.373Z,11.83
2018-09-16T02:15:34.910Z,16.52
2018-09-16T02:18:10.364Z,16.37
2018-09-16T02:20:45.850Z,16.37
2018-09-16T02:23:21.203Z,15.60
2018-09-16T02:25:56.652Z,13.35
2018-09-16T02:28:31.988Z,10.25
2018-09-16T02:31:07.525Z,11.15
2018-09-16T02:33:42.754Z,11.57
2018-09-16T02:36:18.250Z,12.93
2018-09-16T02:38:53.628Z,10.53
2018-09-16T02:41:29.221Z,10.63
2018-09-16T02:44:04.656Z,12.35
2018-09-16T02:46:40.243Z,12.80
2018-09-16T02:49:15.707Z,16.73
2018-09-16T02:51:51.257Z,13.60
2018-09-16T02:54:26.781Z,17.98
2018-09-16T02:57:02.208Z,10.70
2018-09-16T02:59:37.405Z,11.93
2018-09-16T03:02:13.026Z,10.72
2018-09-16T03:04:48.398Z,19.77
2018-09-16T03:07:24.014Z,11.85
2018-09-16T03:09:59.374Z,15.23
2018-09-16T03:12:34.833Z,10.23
2018-09-16T03:15:10.306Z,10.65
2018-09-16T03:17:45.786Z,16.95
2018-09-16T03:20:21.080Z,12.25
2018-09-16T03:22:56.612Z,17.90
2018-09-16T03:25:31.826Z,13.58
2018-09-16T03:28:07.552Z,9.48
2018-09-16T03:30:42.788Z,10.10
2018-09-16T03:33:18.222Z,10.93
2018-09-16T03:35:53.614Z,12.05
2018-09-16T03:38:29.064Z,15.70
2018-09-16T03:41:04.453Z,16.60
2018-09-16T03:43:39.973Z,14.47
2018-09-16T03:46:15.400Z,11.73
2018-09-16T03:48:51.024Z,15.08
2018-09-16T03:51:26.408Z,14.55
2018-09-16T03:54:01.791Z,11.30
2018-09-16T03:56:37.066Z,9.48
2018-09-16T03:59:12.464Z,10.75
2018-09-16T04:01:47.738Z,10.18
2018-09-16T04:04:23.207Z,11.40
2018-09-16T04:06:58.484Z,8.83
2018-09-16T04:09:33.937Z,10.70
2018-09-16T04:12:09.391Z,10.30
2018-09-16T04:14:45.169Z,12.65
2018-09-16T04:17:20.625Z,14.93
2018-09-16T04:19:56.055Z,13.98
2018-09-16T04:22:31.494Z,18.80
2018-09-16T04:25:07.182Z,12.03
2018-09-16T04:27:42.485Z,9.20
2018-09-16T04:30:17.932Z,11.38
2018-09-16T04:32:53.226Z,15.98
2018-09-16T04:35:28.913Z,13.50
2018-09-16T04:38:04.464Z,14.80
2018-09-16T04:40:40.066Z,10.50
2018-09-16T04:43:15.486Z,14.50
2018-09-16T04:45:51.082Z,15.88
2018-09-16T04:48:26.599Z,13.98
2018-09-16T04:51:02.108Z,11.60
2018-09-16T04:53:37.499Z,9.20
2018-09-16T04:56:12.946Z,14.00
2018-09-16T04:58:48.429Z,18.42
2018-09-16T05:01:23.909Z,11.80
2018-09-16T05:03:59.456Z,14.63
2018-09-16T05:06:35.020Z,12.15
2018-09-16T05:09:11.377Z,11.33
2018-09-16T05:11:47.151Z,13.30
2018-09-16T05:14:22.558Z,13.48
2018-09-16T05:16:57.963Z,15.35
2018-09-16T05:19:33.282Z,11.40
2018-09-16T05:22:08.711Z,16.87
2018-09-16T05:24:44.136Z,10.93
2018-09-16T05:27:19.633Z,13.22
2018-09-16T05:29:55.101Z,12.00
2018-09-16T05:32:30.712Z,9.48
2018-09-16T05:35:05.950Z,11.55
2018-09-16T05:37:41.524Z,12.30
2018-09-16T05:40:16.922Z,12.82
2018-09-16T05:42:52.465Z,11.10
2018-09-16T05:45:27.837Z,10.30
2018-09-16T05:48:03.512Z,16.82
2018-09-16T05:50:38.828Z,16.60
2018-09-16T05:53:14.382Z,14.18
2018-09-16T05:55:49.687Z,17.30
2018-09-16T05:58:25.109Z,14.05
2018-09-16T06:01:00.772Z,16.45
2018-09-16T06:03:36.429Z,11.55
2018-09-16T06:06:11.765Z,19.15
2018-09-16T06:08:47.188Z,11.43
2018-09-16T06:11:22.493Z,13.95
2018-09-16T06:13:58.010Z,15.32
2018-09-16T06:16:33.631Z,16.00
2018-09-16T06:19:09.537Z,11.28
2018-09-16T06:21:44.820Z,12.73
2018-09-16T06:24:20.242Z,16.10
2018-09-16T06:26:55.765Z,12.18
2018-09-16T06:29:31.153Z,10.50
2018-09-16T06:32:06.611Z,10.90
2018-09-16T06:34:42.013Z,12.10
2018-09-16T06:37:17.424Z,12.15
2018-09-16T06:39:52.847Z,12.18
2018-09-16T06:42:28.314Z,10.32
2018-09-16T06:45:03.740Z,19.73
2018-09-16T06:47:39.048Z,10.00
2018-09-16T06:50:14.691Z,12.17
2018-09-16T06:52:50.091Z,13.87
2018-09-16T06:55:25.426Z,8.80
2018-09-16T06:58:00.778Z,12.73
2018-09-16T07:00:37.029Z,10.93
2018-09-16T07:03:12.440Z,10.53
2018-09-16T07:05:47.857Z,8.43
2018-09-16T07:08:23.466Z,11.43
2018-09-16T07:10:59.301Z,10.60
2018-09-16T07:13:34.590Z,7.20
2018-09-16T07:16:10.100Z,12.23
2018-09-16T07:18:45.613Z,7.80
2018-09-16T07:21:21.103Z,6.67
2018-09-16T07:23:56.684Z,12.40
2018-09-16T07:26:32.074Z,10.90
2018-09-16T07:29:07.537Z,11.37
2018-09-16T07:31:43.341Z,8.83
2018-09-16T07:34:18.677Z,8.53
2018-09-16T07:36:54.228Z,9.40
2018-09-16T07:39:29.656Z,7.00
2018-09-16T07:42:05.121Z,12.73
2018-09-16T07:44:40.329Z,17.87
2018-09-16T07:47:15.806Z,8.77
2018-09-16T07:49:51.261Z,14.83
2018-09-16T07:52:27.517Z,8.97
2018-09-16T07:55:02.821Z,9.73
2018-09-16T07:57:38.313Z,10.63
2018-09-16T08:00:13.805Z,9.97
2018-09-16T08:02:49.337Z,11.33
2018-09-16T08:05:25.076Z,8.00
2018-09-16T08:08:00.511Z,11.33
2018-09-16T08:10:37.852Z,8.90
2018-09-16T08:13:13.837Z,7.87
2018-09-16T08:15:49.776Z,7.37
2018-09-16T08:18:25.329Z,9.63
2018-09-16T08:21:00.854Z,11.12
2018-09-16T08:23:36.364Z,9.10
2018-09-16T08:26:11.700Z,8.45
2018-09-16T08:28:47.137Z,7.80
2018-09-16T08:31:22.530Z,14.07
2018-09-16T08:33:57.911Z,4.83
2018-09-16T08:36:33.678Z,5.05
2018-09-16T08:39:11.227Z,8.63
2018-09-16T08:41:46.517Z,5.72
2018-09-16T08:44:21.925Z,9.45
2018-09-16T08:46:57.126Z,7.28
2018-09-16T08:49:32.725Z,4.83
2018-09-16T08:52:08.252Z,13.93
2018-09-16T08:54:43.855Z,8.33
2018-09-16T08:57:19.333Z,13.25
2018-09-16T08:59:54.832Z,10.40
2018-09-16T09:02:30.041Z,7.20
2018-09-16T09:05:06.317Z,7.97
2018-09-16T09:07:42.367Z,11.03
2018-09-16T09:10:17.888Z,6.30
2018-09-16T09:12:53.250Z,9.47
2018-09-16T09:15:28.768Z,17.27
2018-09-16T09:18:04.233Z,7.23
2018-09-16T09:20:39.609Z,8.73
2018-09-16T09:23:14.886Z,7.57
2018-09-16T09:25:50.444Z,9.80
2018-09-16T09:28:25.740Z,7.97
2018-09-16T09:31:01.375Z,6.70
2018-09-16T09:33:37.825Z,11.83
2018-09-16T09:36:13.589Z,9.83
2018-09-16T09:38:48.893Z,8.27
2018-09-16T09:41:24.382Z,10.33
2018-09-16T09:43:59.700Z,8.93
2018-09-16T09:46:35.332Z,9.57
2018-09-16T09:49:11.685Z,9.17
2018-09-16T09:51:47.206Z,7.50
2018-09-16T09:54:22.615Z,6.53
2018-09-16T09:56:58.188Z,9.83
2018-09-16T09:59:33.548Z,6.77
2018-09-16T10:02:09.045Z,10.73
2018-09-16T10:04:44.241Z,6.43
2018-09-16T10:07:23.744Z,7.70
2018-09-16T10:09:59.037Z,12.10
2018-09-16T10:12:34.813Z,7.20
2018-09-16T10:15:10.277Z,10.53
2018-09-16T10:17:45.679Z,8.27
2018-09-16T10:20:20.957Z,8.63
2018-09-16T10:22:56.622Z,11.80
2018-09-16T10:25:31.919Z,8.83
2018-09-16T10:28:07.340Z,9.60
2018-09-16T10:30:42.908Z,9.60
2018-09-16T10:33:18.507Z,9.07
2018-09-16T10:35:53.795Z,9.37
2018-09-16T10:38:29.291Z,10.40
2018-09-16T10:41:04.810Z,9.73
2018-09-16T10:43:40.336Z,7.63
2018-09-16T10:46:15.749Z,11.20
2018-09-16T10:48:51.230Z,7.70
2018-09-16T10:51:26.673Z,6.90
2018-09-16T10:54:02.418Z,11.07
2018-09-16T10:56:37.724Z,7.73
2018-09-16T10:59:13.252Z,10.30
2018-09-16T11:01:48.512Z,5.67
2018-09-16T11:04:24.188Z,7.40
2018-09-16T11:06:59.372Z,5.47
2018-09-16T11:09:35.194Z,8.20
2018-09-16T11:12:10.633Z,6.20
2018-09-16T11:14:46.598Z,10.03
2018-09-16T11:17:22.206Z,5.80
2018-09-16T11:19:57.877Z,5.80
2018-09-16T11:22:33.288Z,2.63
2018-09-16T11:25:08.772Z,7.37
2018-09-16T11:27:44.680Z,5.30
2018-09-16T11:30:20.033Z,14.10
2018-09-16T11:32:55.524Z,10.63
2018-09-16T11:35:31.165Z,7.37
2018-09-16T11:38:06.977Z,6.07
2018-09-16T11:40:42.761Z,15.50
2018-09-16T11:43:18.069Z,8.10
2018-09-16T11:45:53.542Z,7.93
2018-09-16T11:48:28.784Z,5.13
2018-09-16T11:51:04.253Z,5.27
2018-09-16T11:53:39.677Z,7.57
2018-09-16T11:56:15.088Z,9.47
2018-09-16T11:58:50.385Z,7.27
2018-09-16T12:01:25.982Z,8.23
2018-09-16T12:04:01.336Z,6.60
2018-09-16T12:06:36.930Z,8.83
2018-09-16T12:09:12.367Z,4.03
2018-09-16T12:11:47.898Z,10.93
2018-09-16T12:14:23.281Z,7.90
2018-09-16T12:16:59.093Z,10.17
2018-09-16T12:19:34.380Z,9.63
2018-09-16T12:22:10.090Z,9.77
2018-09-16T12:24:45.613Z,4.77
2018-09-16T12:27:21.374Z,11.07
2018-09-16T12:29:57.254Z,10.20
2018-09-16T12:32:33.316Z,7.07
2018-09-16T12:35:08.549Z,11.97
2018-09-16T12:37:44.104Z,6.70
2018-09-16T12:40:19.395Z,8.23
2018-09-16T12:42:54.899Z,11.83
2018-09-16T12:45:30.369Z,9.57
2018-09-16T12:48:05.895Z,11.30
2018-09-16T12:50:41.345Z,12.30
2018-09-16T12:53:16.908Z,10.60
2018-09-16T12:55:52.339Z,11.37
2018-09-16T12:58:28.197Z,8.30
2018-09-16T13:01:03.689Z,10.13
2018-09-16T13:03:39.116Z,11.50
2018-09-16T13:06:14.626Z,11.67
2018-09-16T13:08:50.251Z,9.97
2018-09-16T13:11:25.955Z,15.70
2018-09-16T13:14:01.551Z,11.70
2018-09-16T13:16:36.903Z,10.20
2018-09-16T13:19:12.341Z,10.30
2018-09-16T13:21:47.585Z,13.50
2018-09-16T13:24:23.231Z,9.40
2018-09-16T13:26:58.501Z,13.30
2018-09-16T13:29:34.012Z,15.40
2018-09-16T13:32:09.445Z,16.30
2018-09-16T13:34:45.035Z,10.90
2018-09-16T13:37:20.542Z,10.90
2018-09-16T13:39:56.004Z,13.83
2018-09-16T13:42:31.416Z,14.83
2018-09-16T13:45:06.990Z,7.90
2018-09-16T13:47:42.456Z,10.50
2018-09-16T13:50:17.881Z,11.03
2018-09-16T13:52:53.164Z,8.67
2018-09-16T13:55:28.879Z,20.30
2018-09-16T13:58:04.176Z,13.17
2018-09-16T14:00:39.890Z,8.20
2018-09-16T14:03:15.366Z,17.90
2018-09-16T14:05:50.762Z,7.93
2018-09-16T14:08:25.988Z,12.67
2018-09-16T14:11:01.652Z,8.07
2018-09-16T14:13:37.124Z,13.50
2018-09-16T14:16:13.044Z,12.50
2018-09-16T14:18:48.377Z,12.47
2018-09-16T14:21:23.946Z,15.17
2018-09-16T14:23:59.449Z,16.80
2018-09-16T14:26:34.932Z,7.00
2018-09-16T14:29:10.224Z,8.70
2018-09-16T14:31:45.717Z,10.63
2018-09-16T14:34:21.164Z,7.30
2018-09-16T14:36:56.817Z,10.00
2018-09-16T14:39:32.276Z,5.43
2018-09-16T14:42:08.010Z,10.20
2018-09-16T14:44:43.225Z,6.60
2018-09-16T14:47:18.805Z,8.43
2018-09-16T14:49:54.497Z,7.00
2018-09-16T14:52:29.997Z,10.10
2018-09-16T14:55:05.616Z,6.50
2018-09-16T14:57:41.313Z,14.87
2018-09-16T15:00:16.749Z,5.17
2018-09-16T15:02:52.300Z,6.17
2018-09-16T15:05:27.751Z,8.53
2018-09-16T15:08:03.388Z,6.97
2018-09-16T15:10:38.828Z,8.80
2018-09-16T15:13:14.612Z,10.13
2018-09-16T15:15:50.773Z,13.63
2018-09-16T15:18:26.510Z,7.77
2018-09-16T15:21:02.071Z,4.97
2018-09-16T15:23:37.621Z,5.77
2018-09-16T15:26:13.120Z,5.80
2018-09-16T15:28:48.791Z,10.53
2018-09-16T15:31:24.150Z,6.30
2018-09-16T15:33:59.687Z,4.77
2018-09-16T15:36:34.881Z,9.07
2018-09-16T15:39:11.074Z,7.60
2018-09-16T15:41:46.430Z,9.60
2018-09-16T15:44:21.837Z,7.20
2018-09-16T15:46:57.172Z,12.00
2018-09-16T15:49:32.684Z,13.40
2018-09-16T15:52:07.911Z,7.10
2018-09-16T15:54:43.856Z,14.53
2018-09-16T15:57:19.256Z,7.57
2018-09-16T15:59:55.887Z,7.63
2018-09-16T16:02:32.357Z,5.77
2018-09-16T16:05:08.027Z,4.93
2018-09-16T16:07:43.212Z,7.30
2018-09-16T16:10:18.776Z,4.87
2018-09-16T16:12:54.116Z,9.27
2018-09-16T16:15:29.833Z,7.47
2018-09-16T16:18:05.412Z,6.70
2018-09-16T16:20:41.073Z,6.20
2018-09-16T16:23:16.525Z,4.97
2018-09-16T16:25:51.956Z,9.27
2018-09-16T16:28:27.396Z,10.93
2018-09-16T16:31:03.058Z,6.63
2018-09-16T16:33:38.392Z,7.97
2018-09-16T16:36:14.045Z,6.90
2018-09-16T16:38:49.614Z,7.50
2018-09-16T16:41:25.249Z,7.83
2018-09-16T16:44:00.506Z,6.57
2018-09-16T16:46:36.132Z,7.70
2018-09-16T16:49:11.649Z,8.40
2018-09-16T16:51:47.341Z,6.07
2018-09-16T16:54:22.848Z,9.77
2018-09-16T16:56:58.460Z,7.60
2018-09-16T16:59:33.887Z,8.07
2018-09-16T17:02:09.525Z,5.70
2018-09-16T17:04:45.130Z,7.90
2018-09-16T17:07:20.929Z,10.37
2018-09-16T17:09:56.324Z,8.70
2018-09-16T17:12:31.921Z,8.10
2018-09-16T17:15:09.041Z,10.17
2018-09-16T17:17:44.906Z,9.60
2018-09-16T17:20:20.193Z,9.67
2018-09-16T17:22:55.744Z,14.60
2018-09-16T17:25:31.213Z,7.07
2018-09-16T17:28:06.741Z,9.80
2018-09-16T17:30:42.227Z,9.33
2018-09-16T17:33:18.045Z,7.30
2018-09-16T17:35:53.346Z,10.77
2018-09-16T17:38:28.761Z,8.90
2018-09-16T17:41:04.361Z,11.40
2018-09-16T17:43:40.125Z,15.07
2018-09-16T17:46:15.553Z,12.10
2018-09-16T17:48:51.023Z,11.03
2018-09-16T17:51:26.699Z,13.03
2018-09-16T17:54:02.393Z,15.90
2018-09-16T17:56:37.662Z,9.00
2018-09-16T17:59:13.155Z,7.90
2018-09-16T18:01:48.557Z,11.20
2018-09-16T18:04:24.320Z,16.40
2018-09-16T18:06:59.800Z,10.93
2018-09-16T18:09:35.296Z,14.65
2018-09-16T18:12:10.488Z,9.10
2018-09-16T18:14:46.373Z,9.50
2018-09-16T18:17:22.072Z,18.92
2018-09-16T18:19:57.488Z,22.50
2018-09-16T18:22:32.737Z,33.15
2018-09-16T18:25:08.285Z,24.63
2018-09-16T18:27:43.648Z,20.70
2018-09-16T18:30:19.277Z,34.63
2018-09-16T18:32:54.468Z,14.90
2018-09-16T18:35:29.958Z,23.92
2018-09-16T18:38:05.177Z,23.30
2018-09-16T18:40:40.637Z,26.55
2018-09-16T18:43:16.023Z,30.05
2018-09-16T18:45:51.536Z,25.08
2018-09-16T18:48:26.844Z,23.50
2018-09-16T18:51:02.427Z,39.60
2018-09-16T18:53:38.154Z,27.98
2018-09-16T18:56:13.750Z,20.37
2018-09-16T18:58:49.215Z,23.15
2018-09-16T19:01:25.021Z,24.45
2018-09-16T19:04:00.343Z,28.75
2018-09-16T19:06:36.760Z,24.30
2018-09-16T19:09:11.973Z,29.65
2018-09-16T19:11:47.622Z,38.75
2018-09-16T19:14:23.118Z,42.62
2018-09-16T19:16:58.939Z,44.05
2018-09-16T19:19:34.686Z,56.05
2018-09-16T19:22:10.235Z,45.65
2018-09-16T19:24:45.441Z,38.78
2018-09-16T19:27:21.226Z,43.85
2018-09-16T19:29:56.571Z,33.78
2018-09-16T19:32:32.107Z,22.93
2018-09-16T19:35:07.608Z,24.67
2018-09-16T19:37:43.157Z,25.45
2018-09-16T19:40:18.765Z,60.33
2018-09-16T19:42:54.497Z,26.20
2018-09-16T19:45:29.863Z,56.73
2018-09-16T19:48:05.592Z,38.67
2018-09-16T19:50:41.611Z,45.80
2018-09-16T19:53:17.008Z,53.63
2018-09-16T19:55:52.497Z,61.28
2018-09-16T19:58:27.885Z,29.85
2018-09-16T20:01:03.372Z,47.93
2018-09-16T20:03:38.808Z,59.73
2018-09-16T20:06:14.010Z,76.87
2018-09-16T20:08:49.693Z,48.65
2018-09-16T20:11:25.024Z,54.20
2018-09-16T20:14:00.467Z,67.20
2018-09-16T20:16:36.312Z,35.15
2018-09-16T20:19:11.924Z,52.33
2018-09-16T20:21:47.263Z,45.78
2018-09-16T20:24:22.852Z,45.12
2018-09-16T20:26:58.264Z,28.32
2018-09-16T20:29:33.868Z,35.20
2018-09-16T20:32:09.261Z,40.55
2018-09-16T20:34:44.837Z,34.58
2018-09-16T20:37:20.349Z,38.95
2018-09-16T20:39:55.829Z,35.95
2018-09-16T20:42:31.049Z,48.85
2018-09-16T20:45:07.037Z,43.60
2018-09-16T20:47:42.545Z,32.23
2018-09-16T20:50:18.217Z,31.62
2018-09-16T20:52:53.498Z,39.48
2018-09-16T20:55:29.210Z,31.05
2018-09-16T20:58:04.765Z,27.77
2018-09-16T21:00:40.225Z,36.15
2018-09-16T21:03:15.682Z,35.00
2018-09-16T21:05:51.069Z,40.03
2018-09-16T21:08:26.560Z,44.65
2018-09-16T21:11:02.121Z,47.33
2018-09-16T21:13:37.423Z,69.67
2018-09-16T21:16:13.302Z,55.85
2018-09-16T21:18:48.749Z,29.67
2018-09-16T21:21:24.458Z,59.00
2018-09-16T21:23:59.875Z,32.25
2018-09-16T21:26:35.580Z,51.68
2018-09-16T21:29:11.072Z,32.10
2018-09-16T21:31:46.566Z,26.55
2018-09-16T21:34:21.840Z,36.33
2018-09-16T21:36:57.409Z,30.85
2018-09-16T21:39:32.772Z,30.48
2018-09-16T21:42:08.185Z,29.60
2018-09-16T21:44:43.576Z,20.85
2018-09-16T21:47:19.179Z,23.55
2018-09-16T21:49:54.500Z,25.17
2018-09-16T21:52:30.133Z,13.70
2018-09-16T21:55:05.353Z,16.40
2018-09-16T21:57:40.827Z,30.30
2018-09-16T22:00:16.056Z,12.85
2018-09-16T22:02:51.608Z,22.50
2018-09-16T22:05:27.094Z,12.85
2018-09-16T22:08:02.453Z,9.93
2018-09-16T22:10:37.878Z,8.68
2018-09-16T22:13:13.420Z,7.28
2018-09-16T22:15:48.799Z,9.18
2018-09-16T22:18:24.820Z,15.32
2018-09-16T22:21:00.580Z,11.45
2018-09-16T22:23:36.090Z,11.93
2018-09-16T22:26:11.409Z,7.72
2018-09-16T22:28:47.180Z,19.82
2018-09-16T22:31:22.676Z,24.92
2018-09-16T22:33:58.173Z,14.00
2018-09-16T22:36:33.548Z,14.83
2018-09-16T22:39:09.656Z,10.65
2018-09-16T22:41:45.154Z,9.73
2018-09-16T22:44:20.876Z,8.80
2018-09-16T22:46:56.112Z,9.08
2018-09-16T22:49:31.890Z,11.70
2018-09-16T22:52:07.114Z,18.05
2018-09-16T22:54:42.688Z,16.67
2018-09-16T22:57:18.107Z,20.97
2018-09-16T22:59:53.548Z,7.90
2018-09-16T23:02:28.845Z,16.02
2018-09-16T23:05:04.556Z,13.48
2018-09-16T23:07:39.907Z,20.97
2018-09-16T23:10:15.638Z,10.15
2018-09-16T23:12:50.992Z,19.77
2018-09-16T23:15:26.522Z,29.92
2018-09-16T23:18:01.972Z,32.83
2018-09-16T23:20:37.835Z,32.45
2018-09-16T23:23:13.290Z,27.85
2018-09-16T23:25:48.934Z,20.23
2018-09-16T23:28:24.400Z,37.67
2018-09-16T23:30:59.815Z,42.85
2018-09-16T23:33:35.292Z,26.77
2018-09-16T23:36:10.805Z,26.15
2018-09-16T23:38:46.537Z,18.20
2018-09-16T23:41:22.004Z,28.85
2018-09-16T23:43:57.430Z,28.90
2018-09-16T23:46:33.109Z,32.75
2018-09-16T23:49:08.505Z,23.00
2018-09-16T23:51:44.241Z,24.25
2018-09-16T23:54:19.501Z,16.37
2018-09-16T23:56:54.990Z,22.60
2018-09-16T23:59:30.184Z,17.40
